createdAt,value
2018-02-24T00:00:18.154Z,22.90
2018-02-24T00:01:18.093Z,23.30
2018-02-24T00:02:18.038Z,23.50
2018-02-24T00:03:18.010Z,24.60
2018-02-24T00:04:17.932Z,24.30
2018-02-24T00:05:17.877Z,23.20
2018-02-24T00:06:17.821Z,23.40
2018-02-24T00:07:17.773Z,23.20
2018-02-24T00:08:17.739Z,22.70
2018-02-24T00:09:17.662Z,22.40
2018-02-24T00:10:17.615Z,22.20
2018-02-24T00:11:17.556Z,24.30
2018-02-24T00:12:17.509Z,22.50
2018-02-24T00:13:17.475Z,22.50
2018-02-24T00:14:17.393Z,23.50
2018-02-24T00:15:17.339Z,24.40
2018-02-24T00:16:17.287Z,23.80
2018-02-24T00:17:17.241Z,21.90
2018-02-24T00:18:17.221Z,22.50
2018-02-24T00:19:17.130Z,21.70
2018-02-24T00:20:17.072Z,23.50
2018-02-24T00:21:24.170Z,23.20
2018-02-24T00:22:16.962Z,24.50
2018-02-24T00:23:16.942Z,22.40
2018-02-24T00:24:16.865Z,23.00
2018-02-24T00:25:16.801Z,21.70
2018-02-24T00:26:16.784Z,22.10
2018-02-24T00:27:16.699Z,22.60
2018-02-24T00:28:16.723Z,21.80
2018-02-24T00:29:16.588Z,23.70
2018-02-24T00:30:16.534Z,23.20
2018-02-24T00:31:16.481Z,23.30
2018-02-24T00:32:16.433Z,23.20
2018-02-24T00:33:16.399Z,23.30
2018-02-24T00:34:16.317Z,23.50
2018-02-24T00:35:16.267Z,23.40
2018-02-24T00:36:16.216Z,22.30
2018-02-24T00:37:16.167Z,23.30
2018-02-24T00:38:16.130Z,24.20
2018-02-24T00:39:16.114Z,20.70
2018-02-24T00:40:15.998Z,23.70
2018-02-24T00:41:15.946Z,22.20
2018-02-24T00:42:15.933Z,22.60
2018-02-24T00:43:15.858Z,22.20
2018-02-24T00:44:15.784Z,22.00
2018-02-24T00:45:15.728Z,23.70
2018-02-24T00:46:15.678Z,24.10
2018-02-24T00:47:15.622Z,22.40
2018-02-24T00:48:15.692Z,23.10
2018-02-24T00:49:15.521Z,20.30
2018-02-24T00:50:15.464Z,21.70
2018-02-24T00:51:15.407Z,22.70
2018-02-24T00:52:15.351Z,22.30
2018-02-24T00:53:15.328Z,22.00
2018-02-24T00:54:15.251Z,23.70
2018-02-24T00:55:15.195Z,22.90
2018-02-24T00:56:15.136Z,22.50
2018-02-24T00:57:15.085Z,23.20
2018-02-24T00:58:15.057Z,21.40
2018-02-24T00:59:14.976Z,22.00
2018-02-24T01:00:14.925Z,23.00
2018-02-24T01:01:14.972Z,21.80
2018-02-24T01:02:14.818Z,22.30
2018-02-24T01:03:14.784Z,21.70
2018-02-24T01:04:14.722Z,22.10
2018-02-24T01:05:14.654Z,23.10
2018-02-24T01:06:14.609Z,23.30
2018-02-24T01:07:14.546Z,22.80
2018-02-24T01:08:14.547Z,23.00
2018-02-24T01:09:14.495Z,23.10
2018-02-24T01:10:14.403Z,23.40
2018-02-24T01:11:14.334Z,22.80
2018-02-24T01:12:14.275Z,22.30
2018-02-24T01:13:14.253Z,22.60
2018-02-24T01:14:14.167Z,23.00
2018-02-24T01:15:14.116Z,21.90
2018-02-24T01:16:14.063Z,23.00
2018-02-24T01:17:14.014Z,22.20
2018-02-24T01:18:14.002Z,20.90
2018-02-24T01:19:13.908Z,23.70
2018-02-24T01:20:13.846Z,22.10
2018-02-24T01:21:13.794Z,23.00
2018-02-24T01:22:13.740Z,23.50
2018-02-24T01:23:13.709Z,21.20
2018-02-24T01:24:13.673Z,24.40
2018-02-24T01:25:13.578Z,22.30
2018-02-24T01:26:13.525Z,22.20
2018-02-24T01:27:13.475Z,21.50
2018-02-24T01:28:13.439Z,22.60
2018-02-24T01:29:13.420Z,22.30
2018-02-24T01:30:13.308Z,22.20
2018-02-24T01:31:13.254Z,23.00
2018-02-24T01:32:13.202Z,22.00
2018-02-24T01:33:13.180Z,21.60
2018-02-24T01:34:13.098Z,21.70
2018-02-24T01:35:13.040Z,22.70
2018-02-24T01:36:12.984Z,23.90
2018-02-24T01:37:12.935Z,22.40
2018-02-24T01:38:12.927Z,24.00
2018-02-24T01:39:12.826Z,21.80
2018-02-24T01:40:12.771Z,21.60
2018-02-24T01:41:12.717Z,23.40
2018-02-24T01:42:12.662Z,22.10
2018-02-24T01:43:12.629Z,23.90
2018-02-24T01:44:12.554Z,23.00
2018-02-24T01:45:12.503Z,23.00
2018-02-24T01:46:12.451Z,23.20
2018-02-24T01:47:12.394Z,22.80
2018-02-24T01:48:12.368Z,21.70
2018-02-24T01:49:12.284Z,21.70
2018-02-24T01:50:12.266Z,21.30
2018-02-24T01:51:12.182Z,22.90
2018-02-24T01:52:12.123Z,21.80
2018-02-24T01:53:12.096Z,22.10
2018-02-24T01:54:12.018Z,23.30
2018-02-24T01:55:11.964Z,23.10
2018-02-24T01:56:11.916Z,24.30
2018-02-24T01:57:11.872Z,22.30
2018-02-24T01:58:11.902Z,21.90
2018-02-24T01:59:11.749Z,23.20
2018-02-24T02:00:11.693Z,23.10
2018-02-24T02:01:11.643Z,21.50
2018-02-24T02:02:11.585Z,24.80
2018-02-24T02:03:11.532Z,22.00
2018-02-24T02:04:11.499Z,23.80
2018-02-24T02:05:11.427Z,24.00
2018-02-24T02:06:11.369Z,23.10
2018-02-24T02:07:11.317Z,23.20
2018-02-24T02:08:11.260Z,23.90
2018-02-24T02:09:11.232Z,23.30
2018-02-24T02:10:11.158Z,23.90
2018-02-24T02:11:11.101Z,23.20
2018-02-24T02:12:11.045Z,22.70
2018-02-24T02:13:10.992Z,23.60
2018-02-24T02:14:10.963Z,22.60
2018-02-24T02:15:10.884Z,24.00
2018-02-24T02:16:10.831Z,23.70
2018-02-24T02:17:10.775Z,23.60
2018-02-24T02:18:10.720Z,24.20
2018-02-24T02:19:10.696Z,22.90
2018-02-24T02:20:10.616Z,24.90
2018-02-24T02:21:10.559Z,23.10
2018-02-24T02:22:10.507Z,22.80
2018-02-24T02:23:10.457Z,22.80
2018-02-24T02:24:10.428Z,23.80
2018-02-24T02:25:10.347Z,24.30
2018-02-24T02:26:10.298Z,24.50
2018-02-24T02:27:10.237Z,23.30
2018-02-24T02:28:10.182Z,24.40
2018-02-24T02:29:10.156Z,25.10
2018-02-24T02:30:10.077Z,23.70
2018-02-24T02:31:10.027Z,22.70
2018-02-24T02:32:09.968Z,24.10
2018-02-24T02:33:09.917Z,25.80
2018-02-24T02:34:09.890Z,24.20
2018-02-24T02:35:09.805Z,23.10
2018-02-24T02:36:09.756Z,25.20
2018-02-24T02:37:09.704Z,23.60
2018-02-24T02:38:09.679Z,23.80
2018-02-24T02:39:09.614Z,24.70
2018-02-24T02:40:09.539Z,23.60
2018-02-24T02:41:09.481Z,24.70
2018-02-24T02:42:09.432Z,26.20
2018-02-24T02:43:09.373Z,24.20
2018-02-24T02:44:09.343Z,27.40
2018-02-24T02:45:09.271Z,24.40
2018-02-24T02:46:09.210Z,24.30
2018-02-24T02:47:09.159Z,25.70
2018-02-24T02:48:09.149Z,23.00
2018-02-24T02:49:09.148Z,25.20
2018-02-24T02:50:09.000Z,23.50
2018-02-24T02:51:08.942Z,25.80
2018-02-24T02:52:08.888Z,26.10
2018-02-24T02:53:08.839Z,25.10
2018-02-24T02:54:08.800Z,25.10
2018-02-24T02:55:08.727Z,24.50
2018-02-24T02:56:08.675Z,25.30
2018-02-24T02:57:08.622Z,24.50
2018-02-24T02:58:08.569Z,25.70
2018-02-24T02:59:08.546Z,27.30
2018-02-24T03:00:08.456Z,25.50
2018-02-24T03:01:08.417Z,24.20
2018-02-24T03:02:08.350Z,26.00
2018-02-24T03:03:08.298Z,26.40
2018-02-24T03:04:08.380Z,25.10
2018-02-24T03:05:08.190Z,24.20
2018-02-24T03:06:08.147Z,27.30
2018-02-24T03:07:08.080Z,24.30
2018-02-24T03:08:08.024Z,25.40
2018-02-24T03:09:08.003Z,25.40
2018-02-24T03:10:07.924Z,24.60
2018-02-24T03:11:07.863Z,25.80
2018-02-24T03:12:07.910Z,27.30
2018-02-24T03:13:07.756Z,24.50
2018-02-24T03:14:07.812Z,25.40
2018-02-24T03:15:07.652Z,26.20
2018-02-24T03:16:07.596Z,26.60
2018-02-24T03:17:07.542Z,26.60
2018-02-24T03:18:07.486Z,27.10
2018-02-24T03:19:07.458Z,25.30
2018-02-24T03:20:07.378Z,26.40
2018-02-24T03:21:07.329Z,25.40
2018-02-24T03:22:07.277Z,29.30
2018-02-24T03:23:07.226Z,28.10
2018-02-24T03:24:07.189Z,26.20
2018-02-24T03:25:07.106Z,25.60
2018-02-24T03:26:07.051Z,25.40
2018-02-24T03:27:07.012Z,26.00
2018-02-24T03:28:06.951Z,26.90
2018-02-24T03:29:06.927Z,25.00
2018-02-24T03:30:06.840Z,26.50
2018-02-24T03:31:06.797Z,28.40
2018-02-24T03:32:06.733Z,27.20
2018-02-24T03:33:06.682Z,26.20
2018-02-24T03:34:06.645Z,28.90
2018-02-24T03:35:06.593Z,28.20
2018-02-24T03:36:06.516Z,27.30
2018-02-24T03:37:06.460Z,27.40
2018-02-24T03:38:06.404Z,26.70
2018-02-24T03:39:06.374Z,27.20
2018-02-24T03:40:06.298Z,27.90
2018-02-24T03:41:06.254Z,27.90
2018-02-24T03:42:06.189Z,27.00
2018-02-24T03:43:06.138Z,27.70
2018-02-24T03:44:06.109Z,27.60
2018-02-24T03:45:06.029Z,27.40
2018-02-24T03:46:05.972Z,25.80
2018-02-24T03:47:05.920Z,28.70
2018-02-24T03:48:05.867Z,27.00
2018-02-24T03:49:05.848Z,27.70
2018-02-24T03:50:05.760Z,26.70
2018-02-24T03:51:05.707Z,26.50
2018-02-24T03:52:05.653Z,25.80
2018-02-24T03:53:05.607Z,28.10
2018-02-24T03:54:05.562Z,26.10
2018-02-24T03:55:05.502Z,28.60
2018-02-24T03:56:05.440Z,28.50
2018-02-24T03:57:05.385Z,28.00
2018-02-24T03:58:05.331Z,27.60
2018-02-24T03:59:05.297Z,28.00
2018-02-24T04:00:05.221Z,27.00
2018-02-24T04:01:05.168Z,28.20
2018-02-24T04:02:05.109Z,27.90
2018-02-24T04:03:05.061Z,27.50
2018-02-24T04:04:05.024Z,27.00
2018-02-24T04:05:04.949Z,29.00
2018-02-24T04:06:04.901Z,26.90
2018-02-24T04:07:04.840Z,27.10
2018-02-24T04:08:04.787Z,26.80
2018-02-24T04:09:04.762Z,27.70
2018-02-24T04:10:04.681Z,27.30
2018-02-24T04:11:04.626Z,26.70
2018-02-24T04:12:04.568Z,27.50
2018-02-24T04:13:04.515Z,28.00
2018-02-24T04:14:04.484Z,27.50
2018-02-24T04:15:04.409Z,29.40
2018-02-24T04:16:04.358Z,28.80
2018-02-24T04:17:04.300Z,29.30
2018-02-24T04:18:04.242Z,27.80
2018-02-24T04:19:04.215Z,26.70
2018-02-24T04:20:04.135Z,28.80
2018-02-24T04:21:04.082Z,28.60
2018-02-24T04:22:04.032Z,27.90
2018-02-24T04:23:03.978Z,30.80
2018-02-24T04:24:03.947Z,29.10
2018-02-24T04:25:03.870Z,29.00
2018-02-24T04:26:03.818Z,30.00
2018-02-24T04:27:03.757Z,32.30
2018-02-24T04:28:03.785Z,31.00
2018-02-24T04:29:03.677Z,29.00
2018-02-24T04:30:03.597Z,30.20
2018-02-24T04:31:03.545Z,29.60
2018-02-24T04:32:03.493Z,29.60
2018-02-24T04:33:03.432Z,31.30
2018-02-24T04:34:03.459Z,29.00
2018-02-24T04:35:03.328Z,29.50
2018-02-24T04:36:03.275Z,28.90
2018-02-24T04:37:03.218Z,29.40
2018-02-24T04:38:03.163Z,28.70
2018-02-24T04:39:03.133Z,30.40
2018-02-24T04:40:03.058Z,30.10
2018-02-24T04:41:03.002Z,28.30
2018-02-24T04:42:02.946Z,27.80
2018-02-24T04:43:02.908Z,27.90
2018-02-24T04:44:02.866Z,26.30
2018-02-24T04:45:02.790Z,26.90
2018-02-24T04:46:02.731Z,26.40
2018-02-24T04:47:02.676Z,27.50
2018-02-24T04:48:02.624Z,28.20
2018-02-24T04:49:02.615Z,26.80
2018-02-24T04:50:02.516Z,28.30
2018-02-24T04:51:02.462Z,27.10
2018-02-24T04:52:02.406Z,27.20
2018-02-24T04:53:02.356Z,25.90
2018-02-24T04:54:02.301Z,27.40
2018-02-24T04:55:02.272Z,27.50
2018-02-24T04:56:02.191Z,26.20
2018-02-24T04:57:02.136Z,25.80
2018-02-24T04:58:09.914Z,25.50
2018-02-24T04:59:02.034Z,28.40
2018-02-24T05:00:02.000Z,25.50
2018-02-24T05:01:01.921Z,25.40
2018-02-24T05:02:01.866Z,25.40
2018-02-24T05:03:01.813Z,27.30
2018-02-24T05:04:01.757Z,27.10
2018-02-24T05:05:01.727Z,26.60
2018-02-24T05:06:01.669Z,25.10
2018-02-24T05:07:01.593Z,25.40
2018-02-24T05:08:01.546Z,26.00
2018-02-24T05:09:01.514Z,26.60
2018-02-24T05:10:01.458Z,25.40
2018-02-24T05:11:01.397Z,27.50
2018-02-24T05:12:01.323Z,24.10
2018-02-24T05:13:01.268Z,25.80
2018-02-24T05:14:01.232Z,27.20
2018-02-24T05:15:01.189Z,24.90
2018-02-24T05:16:01.107Z,25.90
2018-02-24T05:17:01.052Z,25.80
2018-02-24T05:18:01.000Z,25.80
2018-02-24T05:19:00.941Z,25.20
2018-02-24T05:20:00.924Z,26.70
2018-02-24T05:21:00.833Z,24.60
2018-02-24T05:22:00.805Z,25.10
2018-02-24T05:23:00.723Z,23.70
2018-02-24T05:24:00.671Z,25.80
2018-02-24T05:25:00.639Z,23.60
2018-02-24T05:26:00.564Z,25.30
2018-02-24T05:27:00.507Z,24.40
2018-02-24T05:28:00.451Z,25.00
2018-02-24T05:29:00.402Z,25.80
2018-02-24T05:30:00.366Z,23.30
2018-02-24T05:31:00.288Z,23.70
2018-02-24T05:32:00.235Z,25.00
2018-02-24T05:33:00.185Z,26.20
2018-02-24T05:34:00.126Z,24.60
2018-02-24T05:35:00.120Z,25.60
2018-02-24T05:36:00.018Z,23.40
2018-02-24T05:36:59.964Z,24.50
2018-02-24T05:37:59.908Z,25.90
2018-02-24T05:39:07.040Z,23.60
2018-02-24T05:39:59.824Z,23.30
2018-02-24T05:40:59.749Z,24.00
2018-02-24T05:41:59.691Z,24.90
2018-02-24T05:42:59.636Z,23.30
2018-02-24T05:43:59.580Z,23.60
2018-02-24T05:44:59.550Z,23.80
2018-02-24T05:45:59.477Z,23.10
2018-02-24T05:46:59.420Z,24.70
2018-02-24T05:47:59.365Z,23.90
2018-02-24T05:48:59.308Z,23.60
2018-02-24T05:49:59.277Z,23.80
2018-02-24T05:50:59.200Z,25.00
2018-02-24T05:51:59.148Z,24.40
2018-02-24T05:52:59.100Z,23.20
2018-02-24T05:53:59.042Z,24.10
2018-02-24T05:54:59.016Z,22.70
2018-02-24T05:55:58.954Z,23.70
2018-02-24T05:56:58.879Z,25.50
2018-02-24T05:57:58.822Z,23.70
2018-02-24T05:58:58.770Z,23.20
2018-02-24T05:59:58.733Z,23.00
2018-02-24T06:00:58.658Z,23.90
2018-02-24T06:01:58.600Z,25.00
2018-02-24T06:02:58.550Z,22.80
2018-02-24T06:03:58.505Z,23.30
2018-02-24T06:04:58.464Z,23.40
2018-02-24T06:05:58.385Z,23.80
2018-02-24T06:06:58.330Z,24.50
2018-02-24T06:07:58.276Z,24.30
2018-02-24T06:08:58.226Z,21.60
2018-02-24T06:09:58.192Z,22.90
2018-02-24T06:10:58.117Z,22.70
2018-02-24T06:11:58.062Z,22.80
2018-02-24T06:12:58.008Z,24.50
2018-02-24T06:13:57.952Z,23.50
2018-02-24T06:14:57.918Z,21.20
2018-02-24T06:15:57.845Z,23.50
2018-02-24T06:16:57.788Z,22.70
2018-02-24T06:17:57.731Z,21.60
2018-02-24T06:18:57.680Z,22.50
2018-02-24T06:19:57.650Z,22.60
2018-02-24T06:20:57.574Z,22.60
2018-02-24T06:21:57.517Z,23.40
2018-02-24T06:22:57.462Z,24.30
2018-02-24T06:23:57.409Z,23.40
2018-02-24T06:24:57.377Z,24.10
2018-02-24T06:25:57.300Z,23.50
2018-02-24T06:26:57.242Z,23.10
2018-02-24T06:27:57.189Z,23.20
2018-02-24T06:28:57.136Z,22.60
2018-02-24T06:29:57.101Z,23.10
2018-02-24T06:30:57.029Z,23.50
2018-02-24T06:31:56.973Z,23.00
2018-02-24T06:32:56.917Z,21.70
2018-02-24T06:33:56.863Z,25.80
2018-02-24T06:34:56.835Z,23.20
2018-02-24T06:35:56.759Z,24.90
2018-02-24T06:36:56.705Z,22.30
2018-02-24T06:37:56.647Z,23.70
2018-02-24T06:38:56.593Z,24.90
2018-02-24T06:39:56.564Z,26.70
2018-02-24T06:40:56.493Z,24.10
2018-02-24T06:41:56.430Z,24.70
2018-02-24T06:42:56.378Z,22.20
2018-02-24T06:43:56.329Z,24.50
2018-02-24T06:44:56.291Z,24.80
2018-02-24T06:45:56.212Z,24.80
2018-02-24T06:46:56.168Z,25.80
2018-02-24T06:47:56.105Z,22.50
2018-02-24T06:48:56.050Z,24.50
2018-02-24T06:49:56.026Z,23.20
2018-02-24T06:50:55.941Z,29.50
2018-02-24T06:51:55.892Z,26.40
2018-02-24T06:52:55.853Z,27.50
2018-02-24T06:53:55.782Z,24.40
2018-02-24T06:54:55.751Z,22.10
2018-02-24T06:55:55.672Z,22.70
2018-02-24T06:56:55.618Z,23.50
2018-02-24T06:57:55.565Z,24.80
2018-02-24T06:58:55.505Z,23.00
2018-02-24T06:59:55.525Z,23.60
2018-02-24T07:00:55.404Z,23.60
2018-02-24T07:01:55.347Z,24.10
2018-02-24T07:02:55.293Z,22.40
2018-02-24T07:03:55.241Z,23.60
2018-02-24T07:04:55.213Z,21.90
2018-02-24T07:05:55.131Z,23.00
2018-02-24T07:06:55.078Z,21.60
2018-02-24T07:07:55.029Z,21.90
2018-02-24T07:08:54.966Z,23.20
2018-02-24T07:09:54.934Z,21.80
2018-02-24T07:10:54.860Z,21.10
2018-02-24T07:11:54.806Z,22.00
2018-02-24T07:12:54.760Z,21.50
2018-02-24T07:13:54.696Z,20.50
2018-02-24T07:14:54.664Z,21.80
2018-02-24T07:15:54.588Z,20.90
2018-02-24T07:16:54.534Z,19.80
2018-02-24T07:17:54.483Z,20.80
2018-02-24T07:18:54.440Z,21.30
2018-02-24T07:19:54.398Z,20.30
2018-02-24T07:20:54.321Z,20.90
2018-02-24T07:21:54.271Z,19.60
2018-02-24T07:22:54.215Z,21.90
2018-02-24T07:23:54.159Z,19.30
2018-02-24T07:24:54.124Z,19.00
2018-02-24T07:25:54.048Z,19.00
2018-02-24T07:26:53.995Z,20.50
2018-02-24T07:27:53.940Z,18.30
2018-02-24T07:28:53.888Z,19.70
2018-02-24T07:29:53.869Z,20.90
2018-02-24T07:30:53.782Z,20.20
2018-02-24T07:31:53.726Z,18.00
2018-02-24T07:32:53.673Z,18.30
2018-02-24T07:33:53.619Z,20.20
2018-02-24T07:34:53.560Z,17.60
2018-02-24T07:35:53.533Z,18.40
2018-02-24T07:36:53.460Z,17.80
2018-02-24T07:37:53.403Z,18.70
2018-02-24T07:38:53.345Z,18.70
2018-02-24T07:39:53.294Z,19.10
2018-02-24T07:40:53.264Z,18.00
2018-02-24T07:41:53.189Z,18.60
2018-02-24T07:42:53.142Z,17.60
2018-02-24T07:43:53.080Z,17.90
2018-02-24T07:44:53.025Z,17.40
2018-02-24T07:45:52.993Z,18.40
2018-02-24T07:46:52.934Z,18.00
2018-02-24T07:47:52.861Z,18.10
2018-02-24T07:48:52.808Z,17.20
2018-02-24T07:49:52.756Z,16.80
2018-02-24T07:50:52.727Z,16.70
2018-02-24T07:51:52.649Z,16.80
2018-02-24T07:52:52.605Z,18.20
2018-02-24T07:53:52.544Z,16.50
2018-02-24T07:54:52.489Z,17.60
2018-02-24T07:55:52.459Z,16.80
2018-02-24T07:56:52.383Z,16.50
2018-02-24T07:57:52.337Z,15.50
2018-02-24T07:58:52.273Z,15.90
2018-02-24T07:59:52.236Z,16.70
2018-02-24T08:00:52.194Z,15.00
2018-02-24T08:01:52.122Z,16.40
2018-02-24T08:02:52.065Z,17.90
2018-02-24T08:03:52.011Z,15.70
2018-02-24T08:04:51.954Z,16.90
2018-02-24T08:05:51.929Z,15.90
2018-02-24T08:06:51.847Z,17.40
2018-02-24T08:07:51.797Z,17.40
2018-02-24T08:08:51.744Z,15.70
2018-02-24T08:09:51.689Z,16.80
2018-02-24T08:10:51.663Z,18.80
2018-02-24T08:11:51.623Z,15.80
2018-02-24T08:12:51.527Z,15.90
2018-02-24T08:13:51.480Z,16.10
2018-02-24T08:14:51.427Z,16.00
2018-02-24T08:15:51.393Z,14.90
2018-02-24T08:16:51.321Z,15.40
2018-02-24T08:17:51.261Z,15.20
2018-02-24T08:18:51.210Z,14.70
2018-02-24T08:19:51.155Z,15.90
2018-02-24T08:20:51.127Z,16.80
2018-02-24T08:21:51.050Z,16.50
2018-02-24T08:22:50.995Z,16.20
2018-02-24T08:23:50.943Z,14.50
2018-02-24T08:24:50.893Z,15.70
2018-02-24T08:25:50.870Z,16.00
2018-02-24T08:26:50.802Z,16.70
2018-02-24T08:27:50.730Z,15.80
2018-02-24T08:28:50.682Z,14.80
2018-02-24T08:29:50.627Z,14.00
2018-02-24T08:30:50.594Z,13.60
2018-02-24T08:31:50.522Z,16.50
2018-02-24T08:32:50.520Z,16.10
2018-02-24T08:33:50.415Z,16.00
2018-02-24T08:34:50.361Z,14.80
2018-02-24T08:35:50.337Z,14.10
2018-02-24T08:36:50.258Z,13.60
2018-02-24T08:37:50.202Z,14.70
2018-02-24T08:38:50.152Z,14.70
2018-02-24T08:39:50.097Z,13.50
2018-02-24T08:40:50.065Z,13.70
2018-02-24T08:41:49.994Z,14.50
2018-02-24T08:42:49.943Z,14.50
2018-02-24T08:43:49.888Z,14.00
2018-02-24T08:44:49.841Z,14.50
2018-02-24T08:45:49.813Z,12.70
2018-02-24T08:46:49.728Z,13.90
2018-02-24T08:47:49.677Z,14.40
2018-02-24T08:48:49.627Z,14.10
2018-02-24T08:49:49.572Z,13.30
2018-02-24T08:50:49.543Z,13.20
2018-02-24T08:51:49.469Z,12.60
2018-02-24T08:52:49.463Z,13.20
2018-02-24T08:53:49.362Z,12.90
2018-02-24T08:54:49.309Z,13.20
2018-02-24T08:55:49.289Z,12.40
2018-02-24T08:56:49.221Z,12.60
2018-02-24T08:57:49.152Z,11.90
2018-02-24T08:58:49.106Z,12.20
2018-02-24T08:59:49.047Z,12.60
2018-02-24T09:00:49.022Z,12.50
2018-02-24T09:01:48.944Z,12.00
2018-02-24T09:02:48.892Z,10.60
2018-02-24T09:03:48.843Z,13.00
2018-02-24T09:04:48.789Z,11.30
2018-02-24T09:05:48.758Z,11.70
2018-02-24T09:06:48.698Z,11.10
2018-02-24T09:07:48.655Z,12.50
2018-02-24T09:08:48.580Z,12.10
2018-02-24T09:09:48.526Z,12.80
2018-02-24T09:10:48.502Z,11.80
2018-02-24T09:11:48.424Z,10.80
2018-02-24T09:12:48.373Z,11.90
2018-02-24T09:13:48.324Z,11.60
2018-02-24T09:14:48.270Z,12.00
2018-02-24T09:15:48.248Z,12.00
2018-02-24T09:16:48.165Z,11.80
2018-02-24T09:17:48.117Z,9.90
2018-02-24T09:18:48.061Z,11.10
2018-02-24T09:19:48.010Z,11.70
2018-02-24T09:20:48.003Z,10.50
2018-02-24T09:21:47.910Z,10.20
2018-02-24T09:22:47.857Z,10.60
2018-02-24T09:23:47.804Z,10.20
2018-02-24T09:24:47.753Z,10.50
2018-02-24T09:25:47.723Z,10.40
2018-02-24T09:26:47.647Z,10.60
2018-02-24T09:27:47.597Z,9.90
2018-02-24T09:28:47.547Z,10.20
2018-02-24T09:29:47.496Z,10.10
2018-02-24T09:30:47.519Z,10.30
2018-02-24T09:31:47.399Z,10.90
2018-02-24T09:32:47.341Z,9.30
2018-02-24T09:33:47.286Z,9.80
2018-02-24T09:34:47.236Z,9.90
2018-02-24T09:35:47.208Z,9.80
2018-02-24T09:36:47.141Z,10.00
2018-02-24T09:37:47.084Z,10.20
2018-02-24T09:38:47.033Z,10.70
2018-02-24T09:39:46.989Z,8.90
2018-02-24T09:40:46.951Z,8.70
2018-02-24T09:41:46.873Z,8.40
2018-02-24T09:42:46.821Z,8.80
2018-02-24T09:43:46.774Z,8.80
2018-02-24T09:44:46.722Z,8.50
2018-02-24T09:45:46.693Z,9.40
2018-02-24T09:46:46.619Z,9.00
2018-02-24T09:47:46.565Z,8.70
2018-02-24T09:48:46.517Z,9.30
2018-02-24T09:49:46.461Z,9.60
2018-02-24T09:50:46.435Z,8.30
2018-02-24T09:51:46.366Z,9.90
2018-02-24T09:52:46.312Z,7.90
2018-02-24T09:53:46.255Z,8.20
2018-02-24T09:54:46.204Z,9.10
2018-02-24T09:55:46.177Z,8.70
2018-02-24T09:56:46.102Z,7.80
2018-02-24T09:57:46.049Z,8.10
2018-02-24T09:58:46.047Z,8.50
2018-02-24T09:59:45.950Z,7.10
2018-02-24T10:00:45.924Z,8.10
2018-02-24T10:01:45.843Z,9.80
2018-02-24T10:02:45.815Z,7.70
2018-02-24T10:03:45.742Z,8.20
2018-02-24T10:04:45.689Z,7.90
2018-02-24T10:05:45.663Z,8.10
2018-02-24T10:06:45.594Z,7.50
2018-02-24T10:07:45.544Z,9.30
2018-02-24T10:08:45.522Z,8.40
2018-02-24T10:09:45.435Z,7.60
2018-02-24T10:10:45.424Z,9.90
2018-02-24T10:11:45.332Z,7.90
2018-02-24T10:12:45.279Z,9.00
2018-02-24T10:13:45.234Z,10.50
2018-02-24T10:14:45.180Z,7.10
2018-02-24T10:15:45.124Z,8.90
2018-02-24T10:16:45.101Z,8.30
2018-02-24T10:17:45.027Z,8.50
2018-02-24T10:18:44.978Z,8.10
2018-02-24T10:19:44.924Z,7.90
2018-02-24T10:20:44.898Z,8.20
2018-02-24T10:21:44.882Z,7.70
2018-02-24T10:22:44.876Z,7.90
2018-02-24T10:23:44.717Z,9.00
2018-02-24T10:24:44.736Z,8.50
2018-02-24T10:25:44.609Z,8.60
2018-02-24T10:26:44.582Z,7.60
2018-02-24T10:27:44.512Z,8.60
2018-02-24T10:28:44.455Z,8.50
2018-02-24T10:29:44.400Z,8.60
2018-02-24T10:30:44.352Z,7.60
2018-02-24T10:31:44.325Z,8.60
2018-02-24T10:32:44.252Z,8.50
2018-02-24T10:33:44.198Z,8.40
2018-02-24T10:34:44.153Z,9.10
2018-02-24T10:35:44.097Z,8.50
2018-02-24T10:36:44.071Z,8.90
2018-02-24T10:37:43.993Z,8.40
2018-02-24T10:38:43.941Z,8.40
2018-02-24T10:39:43.890Z,7.50
2018-02-24T10:40:43.838Z,8.00
2018-02-24T10:41:43.812Z,8.30
2018-02-24T10:42:43.737Z,7.80
2018-02-24T10:43:43.690Z,9.20
2018-02-24T10:44:43.639Z,8.20
2018-02-24T10:45:43.588Z,7.50
2018-02-24T10:46:43.555Z,9.20
2018-02-24T10:47:43.544Z,8.00
2018-02-24T10:48:43.519Z,7.90
2018-02-24T10:49:43.894Z,8.30
2018-02-24T10:50:43.329Z,7.70
2018-02-24T10:51:43.302Z,8.20
2018-02-24T10:52:43.226Z,8.10
2018-02-24T10:53:43.179Z,8.80
2018-02-24T10:54:43.140Z,7.90
2018-02-24T10:55:43.078Z,8.00
2018-02-24T10:56:43.049Z,9.00
2018-02-24T10:57:42.980Z,10.60
2018-02-24T10:58:42.925Z,8.90
2018-02-24T10:59:42.888Z,8.60
2018-02-24T11:00:42.823Z,9.40
2018-02-24T11:01:42.795Z,8.90
2018-02-24T11:02:42.721Z,8.00
2018-02-24T11:03:42.673Z,8.10
2018-02-24T11:04:42.620Z,9.50
2018-02-24T11:05:42.576Z,9.00
2018-02-24T11:06:42.542Z,8.80
2018-02-24T11:07:42.473Z,8.70
2018-02-24T11:08:42.418Z,8.90
2018-02-24T11:09:42.371Z,8.70
2018-02-24T11:10:42.319Z,9.20
2018-02-24T11:11:42.292Z,9.60
2018-02-24T11:12:42.216Z,9.10
2018-02-24T11:13:42.170Z,9.00
2018-02-24T11:14:42.118Z,8.60
2018-02-24T11:15:42.067Z,9.10
2018-02-24T11:16:42.042Z,9.20
2018-02-24T11:17:41.966Z,8.60
2018-02-24T11:18:41.915Z,10.50
2018-02-24T11:19:41.871Z,9.10
2018-02-24T11:20:41.820Z,9.60
2018-02-24T11:21:41.790Z,9.70
2018-02-24T11:22:41.712Z,9.40
2018-02-24T11:23:41.664Z,9.80
2018-02-24T11:24:41.618Z,8.60
2018-02-24T11:25:41.563Z,10.10
2018-02-24T11:26:41.541Z,7.30
2018-02-24T11:27:41.463Z,8.70
2018-02-24T11:28:41.413Z,9.30
2018-02-24T11:29:41.361Z,9.40
2018-02-24T11:30:41.308Z,7.90
2018-02-24T11:31:41.283Z,7.60
2018-02-24T11:32:41.212Z,8.60
2018-02-24T11:33:41.159Z,8.30
2018-02-24T11:34:41.112Z,8.90
2018-02-24T11:35:41.061Z,9.70
2018-02-24T11:36:41.031Z,10.20
2018-02-24T11:37:40.955Z,9.10
2018-02-24T11:38:40.907Z,8.80
2018-02-24T11:39:40.850Z,8.60
2018-02-24T11:40:40.805Z,9.10
2018-02-24T11:41:40.777Z,9.80
2018-02-24T11:42:40.705Z,9.50
2018-02-24T11:43:40.651Z,8.70
2018-02-24T11:44:40.617Z,10.60
2018-02-24T11:45:40.552Z,10.00
2018-02-24T11:46:40.521Z,9.90
2018-02-24T11:47:40.451Z,9.40
2018-02-24T11:48:40.399Z,10.00
2018-02-24T11:49:40.344Z,9.60
2018-02-24T11:50:40.296Z,11.30
2018-02-24T11:51:40.277Z,9.20
2018-02-24T11:52:40.197Z,9.60
2018-02-24T11:53:40.143Z,9.40
2018-02-24T11:54:40.095Z,9.60
2018-02-24T11:55:40.050Z,9.90
2018-02-24T11:56:40.018Z,10.60
2018-02-24T11:57:39.944Z,10.70
2018-02-24T11:58:39.891Z,10.20
2018-02-24T11:59:39.843Z,10.30
2018-02-24T12:00:39.791Z,9.90
2018-02-24T12:01:39.773Z,11.00
2018-02-24T12:02:39.688Z,11.40
2018-02-24T12:03:39.643Z,11.90
2018-02-24T12:04:39.587Z,11.30
2018-02-24T12:05:39.531Z,10.60
2018-02-24T12:06:39.487Z,11.80
2018-02-24T12:07:39.457Z,13.00
2018-02-24T12:08:39.381Z,11.90
2018-02-24T12:09:39.333Z,11.90
2018-02-24T12:10:39.283Z,11.90
2018-02-24T12:11:39.230Z,12.90
2018-02-24T12:12:39.206Z,12.60
2018-02-24T12:13:39.133Z,13.00
2018-02-24T12:14:39.081Z,13.20
2018-02-24T12:15:39.029Z,12.30
2018-02-24T12:16:38.974Z,11.70
2018-02-24T12:17:38.949Z,12.60
2018-02-24T12:18:38.875Z,10.50
2018-02-24T12:19:38.824Z,11.30
2018-02-24T12:20:38.772Z,10.90
2018-02-24T12:21:38.718Z,11.30
2018-02-24T12:22:38.690Z,10.50
2018-02-24T12:23:38.620Z,11.10
2018-02-24T12:24:38.569Z,10.20
2018-02-24T12:25:38.519Z,10.90
2018-02-24T12:26:38.471Z,11.40
2018-02-24T12:27:38.440Z,11.90
2018-02-24T12:28:38.365Z,11.90
2018-02-24T12:29:38.314Z,11.70
2018-02-24T12:30:38.266Z,12.90
2018-02-24T12:31:38.216Z,12.60
2018-02-24T12:32:38.201Z,11.80
2018-02-24T12:33:38.112Z,11.00
2018-02-24T12:34:38.063Z,13.70
2018-02-24T12:35:38.013Z,11.60
2018-02-24T12:36:37.963Z,11.80
2018-02-24T12:37:37.935Z,11.70
2018-02-24T12:38:37.860Z,12.10
2018-02-24T12:39:37.811Z,12.30
2018-02-24T12:40:37.762Z,12.10
2018-02-24T12:41:37.713Z,13.00
2018-02-24T12:42:37.683Z,12.60
2018-02-24T12:43:37.628Z,12.00
2018-02-24T12:44:37.560Z,13.60
2018-02-24T12:45:37.507Z,11.30
2018-02-24T12:46:37.498Z,11.30
2018-02-24T12:47:37.430Z,11.70
2018-02-24T12:48:37.358Z,12.80
2018-02-24T12:49:37.349Z,13.70
2018-02-24T12:50:37.252Z,11.50
2018-02-24T12:51:37.205Z,10.70
2018-02-24T12:52:37.179Z,11.40
2018-02-24T12:53:37.123Z,11.30
2018-02-24T12:54:37.054Z,12.50
2018-02-24T12:55:37.003Z,11.60
2018-02-24T12:56:36.953Z,11.90